Leonardo — IAZA — position and weather

sailwx.info

Track history (hours):
 
Tides and Currents Weather Stations Pressure Air Temp Water Temp Dewpoint Dewpoint Depression Visibility Wind Speed Wind Dir Waves Ship Positions

Leonardo

Last reported at 2016-May-28 03:33 UTC. Time now 2016-May-28 04:01 UTC.
Position N 44°05' E 009°49'.

Length 28 m; draft 2.7 m.

MMSI: 247155800.

Date/timePositionNaut miles runAvg speedWind from/ knotsBaromVisibWave heightAir tempDewpointWater temp
2016-May-28 03:33N 44°05' E 009°49'0 0.0
2016-May-28 02:34N 44°05' E 009°49'0 0.0
2016-May-28 01:34N 44°05' E 009°49'0 0.0
2016-May-28 00:33N 44°05' E 009°49'0 0.0
2016-May-27 23:33N 44°05' E 009°49'0 0.0
2016-May-27 22:33N 44°05' E 009°49'0 0.0
2016-May-27 21:34N 44°05' E 009°49'0 0.0
2016-May-27 20:33N 44°05' E 009°49'0 0.0
2016-May-27 19:33N 44°05' E 009°49'0 0.0
2016-May-27 18:34N 44°05' E 009°49'0 0.0
2016-May-27 17:34N 44°05' E 009°49'0 0.0
2016-May-27 16:33N 44°05' E 009°49'0 0.0
2016-May-27 15:33N 44°05' E 009°49'0 0.0
2016-May-27 14:34N 44°05' E 009°49'0 0.0
2016-May-27 13:33N 44°05' E 009°49'2 1.7
2016-May-27 12:34N 44°04' E 009°51'8 7.8
2016-May-27 11:33N 43°56' E 009°50'6 6.0
2016-May-27 10:33N 43°51' E 009°49'0 0.4
2016-May-27 09:33N 43°50' E 009°49'3 2.8
2016-May-27 08:33N 43°53' E 009°49'8 8.2
2016-May-27 07:33N 44°01' E 009°52'5 4.3
2016-May-27 06:31N 44°05' E 009°49'0 0.0
2016-May-27 05:31N 44°05' E 009°49'0 0.0
2016-May-27 04:30N 44°05' E 009°49'0 0.0
2016-May-27 03:33N 44°05' E 009°49'0 0.0
2016-May-27 02:32N 44°05' E 009°49'0 0.0
2016-May-27 01:32N 44°05' E 009°49'0 0.0
2016-May-27 00:31N 44°05' E 009°49'0 0.0
2016-May-26 23:31N 44°05' E 009°49'0 0.0
2016-May-26 22:31N 44°05' E 009°49'0 0.0
2016-May-26 21:33N 44°05' E 009°49'0 0.0
2016-May-26 20:30N 44°05' E 009°49'0 0.0
2016-May-26 19:29N 44°05' E 009°49'0 0.0
2016-May-26 18:32N 44°05' E 009°49'0 0.0
2016-May-26 17:32N 44°05' E 009°49'6 6.2
2016-May-26 16:33N 43°59' E 009°52'3 3.4
2016-May-26 15:34N 43°56' E 009°51'2 1.7
2016-May-26 14:34N 43°54' E 009°51'1 1.0
2016-May-26 13:33N 43°53' E 009°51'1 0.5
2016-May-26 12:34N 43°53' E 009°51'1 0.6
2016-May-26 11:34N 43°52' E 009°51'0 0.2
2016-May-26 10:33N 43°52' E 009°51'0 0.5
2016-May-26 09:33N 43°52' E 009°50'1 0.7
2016-May-26 08:33N 43°51' E 009°50'4 4.3
2016-May-26 07:33N 43°56' E 009°51'8 8.0
2016-May-26 06:33N 44°04' E 009°51'2 2.1
2016-May-26 05:31N 44°05' E 009°49'0 0.0
2016-May-26 04:31N 44°05' E 009°49'0 0.0
2016-May-26 03:33N 44°05' E 009°49'0 0.0
2016-May-26 02:33N 44°05' E 009°49'0 0.0
2016-May-26 01:29N 44°05' E 009°49'0 0.0
2016-May-26 00:32N 44°05' E 009°49'0 0.0
2016-May-25 23:31N 44°05' E 009°49'0 0.0
2016-May-25 22:31N 44°05' E 009°49'0 0.0
2016-May-25 21:31N 44°05' E 009°49'0 0.0
2016-May-25 20:33N 44°05' E 009°49'0 0.0
2016-May-25 19:33N 44°05' E 009°49'0 0.0
2016-May-25 18:32N 44°05' E 009°49'0 0.0
2016-May-25 17:32N 44°05' E 009°49'0 0.0
2016-May-25 16:32N 44°05' E 009°49'0 0.0
2016-May-25 15:31N 44°05' E 009°49'0 0.0
2016-May-25 14:31N 44°05' E 009°49'0 0.0
2016-May-25 13:33N 44°05' E 009°49'2 2.0
2016-May-25 12:33N 44°04' E 009°52'1 0.8
2016-May-25 11:33N 44°04' E 009°53'0 0.0
2016-May-25 10:33N 44°04' E 009°53'0 0.0
2016-May-25 09:33N 44°04' E 009°53'1 1.0
2016-May-25 08:33N 44°03' E 009°52'3 3.1
2016-May-25 07:33N 44°05' E 009°50'0 0.2
2016-May-25 06:30N 44°05' E 009°49'0 0.0
2016-May-25 05:33N 44°05' E 009°49'0 0.0
2016-May-25 04:32N 44°05' E 009°49'0 0.0
2016-May-25 03:32N 44°05' E 009°49'0 0.0
2016-May-25 02:31N 44°05' E 009°49'0 0.0
2016-May-25 01:31N 44°05' E 009°49'0 0.0
2016-May-25 00:31N 44°05' E 009°49'0 0.0
2016-May-24 23:33N 44°05' E 009°49'0 0.0
2016-May-24 22:33N 44°05' E 009°49'0 0.0
2016-May-24 21:32N 44°05' E 009°49'0 0.0
2016-May-24 20:32N 44°05' E 009°49'0 0.0
2016-May-24 19:31N 44°05' E 009°49'0 0.0
2016-May-24 18:31N 44°05' E 009°49'0 0.0
2016-May-24 17:30N 44°05' E 009°49'0 0.0
2016-May-24 16:33N 44°05' E 009°49'0 0.0
2016-May-24 15:33N 44°05' E 009°49'0 0.0
2016-May-24 14:32N 44°05' E 009°49'0 0.0
2016-May-24 13:32N 44°05' E 009°49'0 0.0
2016-May-24 12:31N 44°05' E 009°49'0 0.0
2016-May-24 11:31N 44°05' E 009°49'0 0.0
2016-May-24 10:33N 44°05' E 009°49'0 0.0
2016-May-24 09:33N 44°05' E 009°49'0 0.0
2016-May-24 08:30N 44°05' E 009°49'0 0.0
2016-May-24 07:32N 44°05' E 009°49'0 0.0
2016-May-24 06:32N 44°05' E 009°49'0 0.0
2016-May-24 05:31N 44°05' E 009°49'0 0.0
2016-May-24 04:31N 44°05' E 009°49'0 0.0
2016-May-24 03:33N 44°05' E 009°49'0 0.0
2016-May-24 02:33N 44°05' E 009°49'0 0.0
2016-May-24 01:33N 44°05' E 009°49'0 0.0
2016-May-24 00:32N 44°05' E 009°49'0 0.0
2016-May-23 23:32N 44°05' E 009°49'0 0.0
2016-May-23 22:31N 44°05' E 009°49'0 0.0
2016-May-23 21:31N 44°05' E 009°49'0 0.0
2016-May-23 20:33N 44°05' E 009°49'0 0.0
2016-May-23 19:33N 44°05' E 009°49'0 0.0
2016-May-23 18:33N 44°05' E 009°49'0 0.0
2016-May-23 17:32N 44°05' E 009°49'0 0.0
2016-May-23 16:32N 44°05' E 009°49'0 0.0
2016-May-23 15:31N 44°05' E 009°49'0 0.0
2016-May-23 14:31N 44°05' E 009°49'0 0.0
2016-May-23 13:33N 44°05' E 009°49'0 0.0
2016-May-23 12:33N 44°05' E 009°49'0 0.0
2016-May-23 11:33N 44°05' E 009°49'0 0.0
2016-May-23 10:32N 44°05' E 009°49'0 0.0
2016-May-23 09:32N 44°05' E 009°49'0 0.0
2016-May-23 08:31N 44°05' E 009°49'0 0.0
2016-May-23 07:31N 44°05' E 009°49'0 0.0
2016-May-23 06:33N 44°05' E 009°49'0 0.0
2016-May-23 05:33N 44°05' E 009°49'0 0.0
2016-May-23 04:33N 44°05' E 009°49'0 0.0
2016-May-23 03:32N 44°05' E 009°49'0 0.0
2016-May-23 02:32N 44°05' E 009°49'0 0.0
2016-May-23 01:28N 44°05' E 009°49'0 0.0
2016-May-23 00:31N 44°05' E 009°49'0 0.0
2016-May-22 23:33N 44°05' E 009°49'0 0.0
2016-May-22 22:30N 44°05' E 009°49'0 0.0
2016-May-22 21:32N 44°05' E 009°49'0 0.0
2016-May-22 20:32N 44°05' E 009°49'0 0.0
2016-May-22 19:32N 44°05' E 009°49'0 0.0
2016-May-22 18:31N 44°05' E 009°49'0 0.0
2016-May-22 17:28N 44°05' E 009°49'5 5.7
2016-May-22 16:33N 44°00' E 009°52'7 7.5
2016-May-22 15:33N 43°53' E 009°50'1 1.1
2016-May-22 14:33N 43°52' E 009°50'2 2.0
2016-May-22 13:33N 43°50' E 009°49'0 0.4
2016-May-22 12:33N 43°50' E 009°49'0 0.4
2016-May-22 11:33N 43°49' E 009°49'0 0.0
2016-May-22 10:33N 43°49' E 009°49'0 0.0
2016-May-22 09:33N 43°49' E 009°49'2 2.5
2016-May-22 08:33N 43°52' E 009°50'8 8.0
2016-May-22 07:33N 43°60' E 009°52'6 5.6
2016-May-22 06:32N 44°05' E 009°49'0 0.0
2016-May-22 05:32N 44°05' E 009°49'0 0.0
2016-May-22 04:28N 44°05' E 009°49'0 0.0
2016-May-22 03:31N 44°05' E 009°49'0 0.0
2016-May-22 02:31N 44°05' E 009°49'0 0.0
2016-May-22 01:33N 44°05' E 009°49'0 0.0
2016-May-22 00:33N 44°05' E 009°49'0 0.0
2016-May-21 23:32N 44°05' E 009°49'0 0.0
2016-May-21 22:32N 44°05' E 009°49'0 0.0
2016-May-21 21:28N 44°05' E 009°49'0 0.0
2016-May-21 20:31N 44°05' E 009°49'0 0.0
2016-May-21 19:34N 44°05' E 009°49'0 0.0
2016-May-21 18:30N 44°05' E 009°49'0 0.0
2016-May-21 17:24N 44°05' E 009°49'1 1.1
2016-May-21 16:33N 44°05' E 009°51'7 7.2
2016-May-21 15:33N 43°58' E 009°52'6 5.8
2016-May-21 14:33N 43°52' E 009°51'0 0.1
2016-May-21 13:33N 43°52' E 009°51'1 0.5
2016-May-21 12:33N 43°52' E 009°50'1 0.6
2016-May-21 11:33N 43°52' E 009°50'6 5.6
2016-May-21 10:33N 43°47' E 009°45'4 4.4
2016-May-21 09:34N 43°44' E 009°41'7 6.9
2016-May-21 08:33N 43°50' E 009°45'8 8.0
2016-May-21 07:33N 43°58' E 009°49'8 7.7
2016-May-21 06:33N 44°05' E 009°50'1 0.5
2016-May-21 05:34N 44°05' E 009°49'0 0.0
2016-May-21 04:30N 44°05' E 009°49'0 0.0
2016-May-21 03:33N 44°05' E 009°49'0 0.0
2016-May-21 02:32N 44°05' E 009°49'0 0.0
2016-May-21 01:32N 44°05' E 009°49'0 0.0
2016-May-21 00:31N 44°05' E 009°49'0 0.0
2016-May-20 23:31N 44°05' E 009°49'0 0.0
2016-May-20 22:33N 44°05' E 009°49'0 0.0
2016-May-20 21:33N 44°05' E 009°49'0 0.0
2016-May-20 20:33N 44°05' E 009°49'0 0.0
2016-May-20 19:32N 44°05' E 009°49'0 0.0
2016-May-20 18:32N 44°05' E 009°49'0 0.0
2016-May-20 17:31N 44°05' E 009°49'0 0.0
2016-May-20 16:31N 44°05' E 009°49'0 0.0
2016-May-20 15:30N 44°05' E 009°49'0 0.0
2016-May-20 14:33N 44°05' E 009°49'0 0.0
2016-May-20 13:33N 44°05' E 009°49'0 0.0
2016-May-20 12:32N 44°05' E 009°49'0 0.0
2016-May-20 11:32N 44°05' E 009°49'0 0.0
2016-May-20 10:31N 44°05' E 009°49'0 0.0
2016-May-20 09:31N 44°05' E 009°49'0 0.0
2016-May-20 08:33N 44°05' E 009°49'0 0.0
2016-May-20 07:33N 44°05' E 009°49'0 0.0
2016-May-20 06:33N 44°05' E 009°49'0 0.0
2016-May-20 04:32N 44°05' E 009°49'0 0.0
2016-May-20 03:31N 44°05' E 009°49'0 0.0
2016-May-20 02:31N 44°05' E 009°49'0 0.0
2016-May-20 01:33N 44°05' E 009°49'0 0.0
2016-May-20 00:33N 44°05' E 009°49'0 0.0
2016-May-19 23:32N 44°05' E 009°49'0 0.0
2016-May-19 22:32N 44°05' E 009°49'0 0.0
2016-May-19 21:29N 44°05' E 009°49'0 0.0
2016-May-19 20:31N 44°05' E 009°49'0 0.0
2016-May-19 19:28N 44°05' E 009°49'0 0.0
2016-May-19 18:33N 44°05' E 009°49'0 0.0
2016-May-19 17:33N 44°05' E 009°49'0 0.0
2016-May-19 16:32N 44°05' E 009°49'0 0.0
2016-May-19 15:32N 44°05' E 009°49'0 0.0
2016-May-19 14:32N 44°05' E 009°49'0 0.0
2016-May-19 13:31N 44°05' E 009°49'0 0.0
2016-May-19 12:31N 44°05' E 009°49'0 0.0
2016-May-19 11:33N 44°05' E 009°49'0 0.0
2016-May-19 10:33N 44°05' E 009°49'0 0.0
2016-May-19 09:32N 44°05' E 009°49'0 0.0
2016-May-19 08:32N 44°05' E 009°49'0 0.0
2016-May-19 07:29N 44°05' E 009°49'0 0.0
2016-May-19 06:31N 44°05' E 009°49'0 0.0
2016-May-19 04:33N 44°05' E 009°49'0 0.0
2016-May-19 03:33N 44°05' E 009°49'0 0.0
2016-May-19 02:32N 44°05' E 009°49'0 0.0
2016-May-19 01:32N 44°05' E 009°49'0 0.0
2016-May-19 00:32N 44°05' E 009°49'0 0.0
2016-May-18 23:31N 44°05' E 009°49'0 0.0
2016-May-18 22:31N 44°05' E 009°49'0 0.0
2016-May-18 21:33N 44°05' E 009°49'0 0.0
2016-May-18 20:30N 44°05' E 009°49'0 0.0
2016-May-18 19:32N 44°05' E 009°49'0 0.0
2016-May-18 18:32N 44°05' E 009°49'0 0.0
2016-May-18 17:28N 44°05' E 009°49'0 0.0
2016-May-18 16:31N 44°05' E 009°49'0 0.4
2016-May-18 15:34N 44°05' E 009°50'8 7.9
2016-May-18 14:33N 43°58' E 009°55'3 2.8
2016-May-18 13:33N 43°56' E 009°56'0 0.1
2016-May-18 12:34N 43°56' E 009°56'0 0.4
2016-May-18 11:34N 43°56' E 009°56'1 0.9
2016-May-18 10:34N 43°55' E 009°56'1 0.7
2016-May-18 09:33N 43°56' E 009°55'1 0.5
2016-May-18 08:34N 43°56' E 009°55'6 5.5
2016-May-18 07:33N 44°01' E 009°53'5 4.8
2016-May-18 06:33N 44°05' E 009°49'0 0.0
2016-May-18 05:32N 44°05' E 009°49'0 0.0
2016-May-18 04:32N 44°05' E 009°49'  
Track history (hours):
 
Tides and Currents Weather Stations Pressure Air Temp Water Temp Dewpoint Dewpoint Depression Visibility Wind Speed Wind Dir Waves Ship Positions

Leonardo

Last reported at 2016-May-28 03:33 UTC. Time now 2016-May-28 04:01 UTC.
Position N 44°05' E 009°49'.

Length 28 m; draft 2.7 m.

MMSI: 247155800.

Date/timePositionNaut miles runAvg speedWind from/ knotsBaromVisibWave heightAir tempDewpointWater temp
2016-May-28 03:33N 44°05' E 009°49'0 0.0
2016-May-28 02:34N 44°05' E 009°49'0 0.0
2016-May-28 01:34N 44°05' E 009°49'0 0.0
2016-May-28 00:33N 44°05' E 009°49'0 0.0
2016-May-27 23:33N 44°05' E 009°49'0 0.0
2016-May-27 22:33N 44°05' E 009°49'0 0.0
2016-May-27 21:34N 44°05' E 009°49'0 0.0
2016-May-27 20:33N 44°05' E 009°49'0 0.0
2016-May-27 19:33N 44°05' E 009°49'0 0.0
2016-May-27 18:34N 44°05' E 009°49'0 0.0
2016-May-27 17:34N 44°05' E 009°49'0 0.0
2016-May-27 16:33N 44°05' E 009°49'0 0.0
2016-May-27 15:33N 44°05' E 009°49'0 0.0
2016-May-27 14:34N 44°05' E 009°49'0 0.0
2016-May-27 13:33N 44°05' E 009°49'2 1.7
2016-May-27 12:34N 44°04' E 009°51'8 7.8
2016-May-27 11:33N 43°56' E 009°50'6 6.0
2016-May-27 10:33N 43°51' E 009°49'0 0.4
2016-May-27 09:33N 43°50' E 009°49'3 2.8
2016-May-27 08:33N 43°53' E 009°49'8 8.2
2016-May-27 07:33N 44°01' E 009°52'5 4.3
2016-May-27 06:31N 44°05' E 009°49'0 0.0
2016-May-27 05:31N 44°05' E 009°49'0 0.0
2016-May-27 04:30N 44°05' E 009°49'0 0.0
2016-May-27 03:33N 44°05' E 009°49'0 0.0
2016-May-27 02:32N 44°05' E 009°49'0 0.0
2016-May-27 01:32N 44°05' E 009°49'0 0.0
2016-May-27 00:31N 44°05' E 009°49'0 0.0
2016-May-26 23:31N 44°05' E 009°49'0 0.0
2016-May-26 22:31N 44°05' E 009°49'0 0.0
2016-May-26 21:33N 44°05' E 009°49'0 0.0
2016-May-26 20:30N 44°05' E 009°49'0 0.0
2016-May-26 19:29N 44°05' E 009°49'0 0.0
2016-May-26 18:32N 44°05' E 009°49'0 0.0
2016-May-26 17:32N 44°05' E 009°49'6 6.2
2016-May-26 16:33N 43°59' E 009°52'3 3.4
2016-May-26 15:34N 43°56' E 009°51'2 1.7
2016-May-26 14:34N 43°54' E 009°51'1 1.0
2016-May-26 13:33N 43°53' E 009°51'1 0.5
2016-May-26 12:34N 43°53' E 009°51'1 0.6
2016-May-26 11:34N 43°52' E 009°51'0 0.2
2016-May-26 10:33N 43°52' E 009°51'0 0.5
2016-May-26 09:33N 43°52' E 009°50'1 0.7
2016-May-26 08:33N 43°51' E 009°50'4 4.3
2016-May-26 07:33N 43°56' E 009°51'8 8.0
2016-May-26 06:33N 44°04' E 009°51'2 2.1
2016-May-26 05:31N 44°05' E 009°49'0 0.0
2016-May-26 04:31N 44°05' E 009°49'0 0.0
2016-May-26 03:33N 44°05' E 009°49'0 0.0
2016-May-26 02:33N 44°05' E 009°49'0 0.0
2016-May-26 01:29N 44°05' E 009°49'0 0.0
2016-May-26 00:32N 44°05' E 009°49'0 0.0
2016-May-25 23:31N 44°05' E 009°49'0 0.0
2016-May-25 22:31N 44°05' E 009°49'0 0.0
2016-May-25 21:31N 44°05' E 009°49'0 0.0
2016-May-25 20:33N 44°05' E 009°49'0 0.0
2016-May-25 19:33N 44°05' E 009°49'0 0.0
2016-May-25 18:32N 44°05' E 009°49'0 0.0
2016-May-25 17:32N 44°05' E 009°49'0 0.0
2016-May-25 16:32N 44°05' E 009°49'0 0.0
2016-May-25 15:31N 44°05' E 009°49'0 0.0
2016-May-25 14:31N 44°05' E 009°49'0 0.0
2016-May-25 13:33N 44°05' E 009°49'2 2.0
2016-May-25 12:33N 44°04' E 009°52'1 0.8
2016-May-25 11:33N 44°04' E 009°53'0 0.0
2016-May-25 10:33N 44°04' E 009°53'0 0.0
2016-May-25 09:33N 44°04' E 009°53'1 1.0
2016-May-25 08:33N 44°03' E 009°52'3 3.1
2016-May-25 07:33N 44°05' E 009°50'0 0.2
2016-May-25 06:30N 44°05' E 009°49'0 0.0
2016-May-25 05:33N 44°05' E 009°49'0 0.0
2016-May-25 04:32N 44°05' E 009°49'0 0.0
2016-May-25 03:32N 44°05' E 009°49'0 0.0
2016-May-25 02:31N 44°05' E 009°49'0 0.0
2016-May-25 01:31N 44°05' E 009°49'0 0.0
2016-May-25 00:31N 44°05' E 009°49'0 0.0
2016-May-24 23:33N 44°05' E 009°49'0 0.0
2016-May-24 22:33N 44°05' E 009°49'0 0.0
2016-May-24 21:32N 44°05' E 009°49'0 0.0
2016-May-24 20:32N 44°05' E 009°49'0 0.0
2016-May-24 19:31N 44°05' E 009°49'0 0.0
2016-May-24 18:31N 44°05' E 009°49'0 0.0
2016-May-24 17:30N 44°05' E 009°49'0 0.0
2016-May-24 16:33N 44°05' E 009°49'0 0.0
2016-May-24 15:33N 44°05' E 009°49'0 0.0
2016-May-24 14:32N 44°05' E 009°49'0 0.0
2016-May-24 13:32N 44°05' E 009°49'0 0.0
2016-May-24 12:31N 44°05' E 009°49'0 0.0
2016-May-24 11:31N 44°05' E 009°49'0 0.0
2016-May-24 10:33N 44°05' E 009°49'0 0.0
2016-May-24 09:33N 44°05' E 009°49'0 0.0
2016-May-24 08:30N 44°05' E 009°49'0 0.0
2016-May-24 07:32N 44°05' E 009°49'0 0.0
2016-May-24 06:32N 44°05' E 009°49'0 0.0
2016-May-24 05:31N 44°05' E 009°49'0 0.0
2016-May-24 04:31N 44°05' E 009°49'0 0.0
2016-May-24 03:33N 44°05' E 009°49'0 0.0
2016-May-24 02:33N 44°05' E 009°49'0 0.0
2016-May-24 01:33N 44°05' E 009°49'0 0.0
2016-May-24 00:32N 44°05' E 009°49'0 0.0
2016-May-23 23:32N 44°05' E 009°49'0 0.0
2016-May-23 22:31N 44°05' E 009°49'0 0.0
2016-May-23 21:31N 44°05' E 009°49'0 0.0
2016-May-23 20:33N 44°05' E 009°49'0 0.0
2016-May-23 19:33N 44°05' E 009°49'0 0.0
2016-May-23 18:33N 44°05' E 009°49'0 0.0
2016-May-23 17:32N 44°05' E 009°49'0 0.0
2016-May-23 16:32N 44°05' E 009°49'0 0.0
2016-May-23 15:31N 44°05' E 009°49'0 0.0
2016-May-23 14:31N 44°05' E 009°49'0 0.0
2016-May-23 13:33N 44°05' E 009°49'0 0.0
2016-May-23 12:33N 44°05' E 009°49'0 0.0
2016-May-23 11:33N 44°05' E 009°49'0 0.0
2016-May-23 10:32N 44°05' E 009°49'0 0.0
2016-May-23 09:32N 44°05' E 009°49'0 0.0
2016-May-23 08:31N 44°05' E 009°49'0 0.0
2016-May-23 07:31N 44°05' E 009°49'0 0.0
2016-May-23 06:33N 44°05' E 009°49'0 0.0
2016-May-23 05:33N 44°05' E 009°49'0 0.0
2016-May-23 04:33N 44°05' E 009°49'0 0.0
2016-May-23 03:32N 44°05' E 009°49'0 0.0
2016-May-23 02:32N 44°05' E 009°49'0 0.0
2016-May-23 01:28N 44°05' E 009°49'0 0.0
2016-May-23 00:31N 44°05' E 009°49'0 0.0
2016-May-22 23:33N 44°05' E 009°49'0 0.0
2016-May-22 22:30N 44°05' E 009°49'0 0.0
2016-May-22 21:32N 44°05' E 009°49'0 0.0
2016-May-22 20:32N 44°05' E 009°49'0 0.0
2016-May-22 19:32N 44°05' E 009°49'0 0.0
2016-May-22 18:31N 44°05' E 009°49'0 0.0
2016-May-22 17:28N 44°05' E 009°49'5 5.7
2016-May-22 16:33N 44°00' E 009°52'7 7.5
2016-May-22 15:33N 43°53' E 009°50'1 1.1
2016-May-22 14:33N 43°52' E 009°50'2 2.0
2016-May-22 13:33N 43°50' E 009°49'0 0.4
2016-May-22 12:33N 43°50' E 009°49'0 0.4
2016-May-22 11:33N 43°49' E 009°49'0 0.0
2016-May-22 10:33N 43°49' E 009°49'0 0.0
2016-May-22 09:33N 43°49' E 009°49'2 2.5
2016-May-22 08:33N 43°52' E 009°50'8 8.0
2016-May-22 07:33N 43°60' E 009°52'6 5.6
2016-May-22 06:32N 44°05' E 009°49'0 0.0
2016-May-22 05:32N 44°05' E 009°49'0 0.0
2016-May-22 04:28N 44°05' E 009°49'0 0.0
2016-May-22 03:31N 44°05' E 009°49'0 0.0
2016-May-22 02:31N 44°05' E 009°49'0 0.0
2016-May-22 01:33N 44°05' E 009°49'0 0.0
2016-May-22 00:33N 44°05' E 009°49'0 0.0
2016-May-21 23:32N 44°05' E 009°49'0 0.0
2016-May-21 22:32N 44°05' E 009°49'0 0.0
2016-May-21 21:28N 44°05' E 009°49'0 0.0
2016-May-21 20:31N 44°05' E 009°49'0 0.0
2016-May-21 19:34N 44°05' E 009°49'0 0.0
2016-May-21 18:30N 44°05' E 009°49'0 0.0
2016-May-21 17:24N 44°05' E 009°49'1 1.1
2016-May-21 16:33N 44°05' E 009°51'7 7.2
2016-May-21 15:33N 43°58' E 009°52'6 5.8
2016-May-21 14:33N 43°52' E 009°51'0 0.1
2016-May-21 13:33N 43°52' E 009°51'1 0.5
2016-May-21 12:33N 43°52' E 009°50'1 0.6
2016-May-21 11:33N 43°52' E 009°50'6 5.6
2016-May-21 10:33N 43°47' E 009°45'4 4.4
2016-May-21 09:34N 43°44' E 009°41'7 6.9
2016-May-21 08:33N 43°50' E 009°45'8 8.0
2016-May-21 07:33N 43°58' E 009°49'8 7.7
2016-May-21 06:33N 44°05' E 009°50'1 0.5
2016-May-21 05:34N 44°05' E 009°49'0 0.0
2016-May-21 04:30N 44°05' E 009°49'0 0.0
2016-May-21 03:33N 44°05' E 009°49'0 0.0
2016-May-21 02:32N 44°05' E 009°49'0 0.0
2016-May-21 01:32N 44°05' E 009°49'0 0.0
2016-May-21 00:31N 44°05' E 009°49'0 0.0
2016-May-20 23:31N 44°05' E 009°49'0 0.0
2016-May-20 22:33N 44°05' E 009°49'0 0.0
2016-May-20 21:33N 44°05' E 009°49'0 0.0
2016-May-20 20:33N 44°05' E 009°49'0 0.0
2016-May-20 19:32N 44°05' E 009°49'0 0.0
2016-May-20 18:32N 44°05' E 009°49'0 0.0
2016-May-20 17:31N 44°05' E 009°49'0 0.0
2016-May-20 16:31N 44°05' E 009°49'0 0.0
2016-May-20 15:30N 44°05' E 009°49'0 0.0
2016-May-20 14:33N 44°05' E 009°49'0 0.0
2016-May-20 13:33N 44°05' E 009°49'0 0.0
2016-May-20 12:32N 44°05' E 009°49'0 0.0
2016-May-20 11:32N 44°05' E 009°49'0 0.0
2016-May-20 10:31N 44°05' E 009°49'0 0.0
2016-May-20 09:31N 44°05' E 009°49'0 0.0
2016-May-20 08:33N 44°05' E 009°49'0 0.0
2016-May-20 07:33N 44°05' E 009°49'0 0.0
2016-May-20 06:33N 44°05' E 009°49'0 0.0
2016-May-20 04:32N 44°05' E 009°49'0 0.0
2016-May-20 03:31N 44°05' E 009°49'0 0.0
2016-May-20 02:31N 44°05' E 009°49'0 0.0
2016-May-20 01:33N 44°05' E 009°49'0 0.0
2016-May-20 00:33N 44°05' E 009°49'0 0.0
2016-May-19 23:32N 44°05' E 009°49'0 0.0
2016-May-19 22:32N 44°05' E 009°49'0 0.0
2016-May-19 21:29N 44°05' E 009°49'0 0.0
2016-May-19 20:31N 44°05' E 009°49'0 0.0
2016-May-19 19:28N 44°05' E 009°49'0 0.0
2016-May-19 18:33N 44°05' E 009°49'0 0.0
2016-May-19 17:33N 44°05' E 009°49'0 0.0
2016-May-19 16:32N 44°05' E 009°49'0 0.0
2016-May-19 15:32N 44°05' E 009°49'0 0.0
2016-May-19 14:32N 44°05' E 009°49'0 0.0
2016-May-19 13:31N 44°05' E 009°49'0 0.0
2016-May-19 12:31N 44°05' E 009°49'0 0.0
2016-May-19 11:33N 44°05' E 009°49'0 0.0
2016-May-19 10:33N 44°05' E 009°49'0 0.0
2016-May-19 09:32N 44°05' E 009°49'0 0.0
2016-May-19 08:32N 44°05' E 009°49'0 0.0
2016-May-19 07:29N 44°05' E 009°49'0 0.0
2016-May-19 06:31N 44°05' E 009°49'0 0.0
2016-May-19 04:33N 44°05' E 009°49'0 0.0
2016-May-19 03:33N 44°05' E 009°49'0 0.0
2016-May-19 02:32N 44°05' E 009°49'0 0.0
2016-May-19 01:32N 44°05' E 009°49'0 0.0
2016-May-19 00:32N 44°05' E 009°49'0 0.0
2016-May-18 23:31N 44°05' E 009°49'0 0.0
2016-May-18 22:31N 44°05' E 009°49'0 0.0
2016-May-18 21:33N 44°05' E 009°49'0 0.0
2016-May-18 20:30N 44°05' E 009°49'0 0.0
2016-May-18 19:32N 44°05' E 009°49'0 0.0
2016-May-18 18:32N 44°05' E 009°49'0 0.0
2016-May-18 17:28N 44°05' E 009°49'0 0.0
2016-May-18 16:31N 44°05' E 009°49'0 0.4
2016-May-18 15:34N 44°05' E 009°50'8 7.9
2016-May-18 14:33N 43°58' E 009°55'3 2.8
2016-May-18 13:33N 43°56' E 009°56'0 0.1
2016-May-18 12:34N 43°56' E 009°56'0 0.4
2016-May-18 11:34N 43°56' E 009°56'1 0.9
2016-May-18 10:34N 43°55' E 009°56'1 0.7
2016-May-18 09:33N 43°56' E 009°55'1 0.5
2016-May-18 08:34N 43°56' E 009°55'6 5.5
2016-May-18 07:33N 44°01' E 009°53'5 4.8
2016-May-18 06:33N 44°05' E 009°49'0 0.0
2016-May-18 05:32N 44°05' E 009°49'0 0.0
2016-May-18 04:32N 44°05' E 009°49'  

Dump ship's entire track history